Airfield :
LOGIN :

Register | Disclaimer

   EN    FR    IT 

 










Legend :    VFR   Marginal VFR   IFR   Intensive IFR   Very Intensive IFR
Visi :
Ceiling :
>= 8 km
>= 3000ft
5 to 8 km
1000 to 3000 ft
1500m to 5 km
500 to 1000 ft
800 to 1500m
200 to 500 ft
< 800m
< 200 ft
Symbols :   Thunderstorms  Fog  Heavy snow  Heavy precipitations  Wind > 20 kt
SIGMETs :     Misc.  Thunderstorms  Icing  Turbulence  Mountain Waves  Volcanic Ashes







- Airport Elevation : 1043 ft
- IATA code : SLD


LZSL - Sliac

CURRENT METAR :
  • 240830Z VRB01KT 9999 FEW035 21/10 Q1016

EXPIRED METARs :
  • 240800Z 00000KT 9999 FEW033 20/10 Q1016
  • 240730Z 00000KT 9999 FEW033 19/12 Q1016
  • 240700Z 00000KT 9999 FEW033 17/11 Q1016
  • 240630Z 00000KT 9999 FEW035 15/11 Q1016
  • 240600Z 00000KT CAVOK 14/11 Q1016

TAF TAF LZSL
Valid from the 24 at 09:00 until the 24 at 18:00 UTC


240800Z 2409/2418 18005KT 9999 SCT038
PROB30
TEMPO 2411/2415 30012KT SHRA SCT027TCU BKN040
BECMG 2416/2418 34004KT CAVOK
No reported NOTAMs for that airfield.



MET'MAP, your aeronautical weather chart ! - Copyright ORBIFLY December 2007 - Disclaimer

ORBIFLY MET'MAP TEAM :

Programming & Development : Alexandra Zaïnal
Concept & Development : Baudouin d'Aumeries
Co-Development & Prog : Marc-Olivier Méhu
Technical & hardware support : Manuel Goepfert

Contact : metmap@orbifly.com




SOURCES & CREDITS :

   NOAA